Corsham, United Kingdom
Current Conditions -  °F | °C
As of 5:50 AM on Tuesday 27 Jan 2015 (Local Time) from EGGD Reporting Station
Scattered Clouds Scattered Clouds  
Wind Chill: 35°   Ceiling: Unl
Heat Index: 41°   Visibility: 6mi
Dew Point: 37°   Wind: 9mph
Humidity: 87%   Direction: 290°WNW
Pressure: 30.39"   Gusts: NA
Location:  51.43°N, 2.18°W
Report Text: EGGD 270550Z 29008KT 9999 SCT030 05/03 Q1029
Loading
Personal Weather Stations






























Interactive Weather Map New forecast layout! Learn more

10-Day Weather Forecast

Advertisements
Track Severe Weather on mobile